Alpha, California Weather observations

Data are for observation ending at time listed.
 Day   Time    Ave.   Ave.  Ave.  Vector   Max.   Stn.    Total    Solar   Ave.   Snow 
  of    of     Air    Rel.  Wind   Wind    Wind   Baro.  Precip.   Rad.    Soil   Depth
Year   Day     Temp.  Hum.  Speed  Dir.    Gust   Pres.                    Temp.       
2014   (PST)    F      %     mph   deg.    mph     mb.     in.     W/m2     F      in. 
---------------------------------------------------------------------------------------  
 295    3:40   42.5    12    1.5   141      2.5   786.6    0.00       0    999.0   18.2
 295    3:50   42.5    13    1.6   143      3.2   786.5    0.00       0    999.0   15.8
 295    4:00   42.7    15    1.8   159      3.9   786.6    0.00       0    999.0   73.2
 295    4:10   43.2    15    3.0   181      4.1   786.8    0.00       0    999.0  158.7
 295    4:20   43.1    19    2.7   182      4.7   786.9    0.00       0    999.0  162.0
 295    4:30   43.3    23    1.3   158      2.5   786.8    0.00       0    999.0  162.2
 295    4:40   43.4    24    1.7   146      3.9   786.8    0.00       0    999.0  160.7
 295    4:50   43.5    23    3.0   126      4.9   786.7    0.00       0    999.0   30.0
 295    5:00   43.6    23    3.2   126      4.7   786.7    0.00       0    999.0  157.8
 295    5:10   43.9    24    3.3   126      6.1   786.7    0.00       0    999.0  160.6
 295    5:20   44.3    28    3.0   124      4.6   786.8    0.00       0    999.0  161.0
 295    5:30   44.4    30    2.6   133      4.2   786.8    0.00       0    999.0  161.8
 295    5:40   44.8    31    2.1   138      4.4   786.9    0.00       0    999.0  162.0
 295    5:50   44.7    31    2.1   153      4.1   787.0    0.00       0    999.0  162.1
 295    6:00   44.8    32    4.5   171      7.4   787.0    0.00       0    999.0  162.2
 295    6:10   45.3    33    3.8   166      6.6   787.1    0.00       0    999.0  162.2
 295    6:20   45.0    34    2.7   154      5.3   787.1    0.00       1    999.0  162.2
 295    6:30   44.9    34    2.6   159      5.6   787.1    0.00       3    999.0  162.2
 295    6:40   45.0    36    2.6   156      4.6   787.2    0.00      10    999.0  162.2
 295    6:50   45.2    36    1.3   147      3.4   787.3    0.00      15    999.0  162.2
 295    7:00   45.2    37    1.8   151      5.0   787.3    0.00      24    999.0  162.2
 295    7:10   45.4    38    2.1   141      4.7   787.4    0.00      30    999.0  162.1
 295    7:20   46.0    37    2.9   130      4.2   787.5    0.00      38    999.0  102.1
 295    7:30   46.6    36    3.0   123      4.8   787.6    0.00      62    999.0  161.6
 295    7:40   47.3    37    3.1   121      4.5   787.7    0.00      81    999.0  162.0
 295    7:50   48.1    36    3.3   122      5.3   787.7    0.00      52    999.0  162.1
 295    8:00   47.5    37    3.4   116      4.9   787.7    0.00      47    999.0  162.0
 295    8:10   48.7    36    3.5   118      5.7   787.8    0.00      72    999.0  161.9
 295    8:20   49.5    35    3.0   138      5.5   787.8    0.00      94    999.0  161.7
 295    8:30   50.3    35    3.5   144      6.0   787.9    0.00     116    999.0  161.8
 295    8:40   50.5    35    2.8   140      5.6   787.9    0.00     137    999.0  161.9
 295    8:50   51.5    33    3.9   158      6.4   788.0    0.00     196    999.0  162.1
 295    9:00   52.1    33    3.5   152      8.4   788.1    0.00     190    999.0  162.2
 295    9:10   52.2    34    4.2   174      8.5   788.0    0.00      82    999.0  162.2
 295    9:20   52.2    34    5.2   186      9.2   788.1    0.00      34    999.0  162.2
 295    9:30   52.2    35    5.2   184     11.0   788.2    0.00      27    999.0  162.2
 295    9:40   52.0    35    4.8   173      8.8   788.2    0.00      23    999.0  162.2
 295    9:50   52.1    34    4.9   178      8.6   788.3    0.00     124    999.0  162.2
 295   10:00   53.9    32    4.3   178      9.5   788.2    0.00     386    999.0  162.1
 295   10:10   53.9    32    5.2   180      9.3   788.1    0.00     404    999.0  162.1
 295   10:20   54.7    33    4.3   179      9.0   788.3    0.00     415    999.0  162.0
 295   10:30   54.7    32    4.1   206      8.5   788.5    0.00     418    999.0  162.1
 295   10:40   54.6    34    2.2   245      5.6   788.5    0.00     430    999.0  162.0
 295   10:50   54.8    34    2.6   219      6.5   788.5    0.00     435    999.0  162.0
 295   11:00   55.0    33    3.9   206      8.5   788.4    0.00     441    999.0  162.0
 295   11:10   54.8    33    2.9   242      6.9   788.4    0.00     457    999.0  162.0
 295   11:20   54.1    34    2.5   280      5.6   788.4    0.00     419    999.0  161.9
 295   11:30   54.6    33    2.6   278      6.6   788.5    0.00     455    999.0  161.9
 295   11:40   54.2    32    3.0   258      7.9   788.5    0.00     430    999.0  161.9
 295   11:50   55.0    31    4.4   206      9.3   788.5    0.00     375    999.0  162.0
 295   12:00   54.7    32    3.3   219      7.5   788.4    0.00     357    999.0  162.0
 295   12:10   54.7    32    2.2   242      5.3   788.3    0.00     346    999.0  162.0
 295   12:20   54.5    32    2.5   265      6.4   788.3    0.00     410    999.0  162.0
 295   12:30   53.9    32    2.4   292      6.0   788.4    0.00     327    999.0  162.0
 295   12:40   53.3    32    2.6   252      7.1   788.3    0.00     262    999.0  162.1
 295   12:50   53.4    33    2.0   269      4.9   788.2    0.00     317    999.0  162.2
 295   13:00   53.6    32    2.6   252      5.6   788.2    0.00     334    999.0  162.2
 295   13:10   53.6    32    2.5   254      7.6   788.2    0.00     330    999.0  162.2
 295   13:20   54.5    32    3.1   225      7.7   788.1    0.00     361    999.0  162.2
 295   13:30   54.4    32    2.5   248      7.1   788.1    0.00     296    999.0  162.2
 295   13:40   53.2    33    2.7   254      6.4   788.1    0.00     276    999.0  162.2
 295   13:50   53.5    33    3.1   239      7.3   788.1    0.00     351    999.0  162.1
 295   14:00   53.9    33    2.7   248      6.0   788.1    0.00     317    999.0  162.1
 295   14:10   54.4    33    2.9   230      8.9   788.1    0.00     296    999.0  162.1
 295   14:20   53.1    35    2.8   281      6.1   788.1    0.00     154    999.0  162.0
 295   14:30   53.3    35    2.6   251      6.6   788.1    0.00      60    999.0  162.0
 295   14:40   53.7    35    2.8   243      7.7   788.1    0.00      79    999.0  162.1
 295   14:50   52.7    36    1.7   293      4.8   788.2    0.00     169    999.0  162.0
 295   15:00   52.7    36    2.3   272      5.4   788.2    0.00     197    999.0  162.1
 295   15:10   52.3    36    3.5   230     10.4   788.1    0.00     195    999.0  162.1
 295   15:20   52.0    36    3.7   237      8.6   788.0    0.00     143    999.0  162.0
 295   15:30   51.4    39    2.4   249      5.8   787.9    0.00     151    999.0  162.1
 295   15:40   51.3    38    2.5   281      5.3   788.0    0.00     164    999.0  162.0
 295   15:50   51.1    40    2.0   269      5.6   788.0    0.00     127    999.0  162.0
 295   16:00   50.2    41    2.3   275      5.8   788.1    0.00      37    999.0  162.1
 295   16:10   49.4    42    2.2   274      4.5   788.0    0.00      15    999.0  162.2
 295   16:20   49.1    43    2.1   250      5.0   788.0    0.00      13    999.0  161.6
 295   16:30   49.1    43    1.8   257      4.5   788.0    0.00      24    999.0   42.2
 295   16:40   49.0    43    2.4   238      4.7   788.0    0.00      15    999.0   13.3
 295   16:50   48.5    44    1.9   242      5.8   788.1    0.00      14    999.0   13.4
 295   17:00   47.8    44    1.5   251      3.1   788.0    0.00       4    999.0   14.4
 295   17:10   47.1    45    1.8   238      3.4   787.9    0.00       2    999.0   14.9
 295   17:20   46.7    46    2.5   229      5.2   788.0    0.00       1    999.0   14.2
 295   17:30   46.3    46    1.9   227      4.2   788.0    0.00       0    999.0   14.1
 295   17:40   45.9    48    1.7   214      3.3   788.0    0.00       0    999.0   14.3
 295   17:50   45.5    49    1.9   201      3.6   788.0    0.00       0    999.0   14.4
 295   18:00   45.4    49    1.9   219      5.0   788.0    0.00       0    999.0   14.7
 295   18:10   45.7    46    2.8   228      6.9   788.0    0.00       0    999.0   15.4
 295   18:20   45.7    45    1.9   216      5.5   788.0    0.00       0    999.0   14.9
 295   18:30   45.4    46    4.6   180      6.9   787.9    0.00       0    999.0   15.0
 295   18:40   45.4    45    2.9   198      7.3   788.0    0.00       0    999.0   15.0
 295   18:50   45.3    45    2.0   220      4.2   788.2    0.00       0    999.0   14.8
 295   19:00   45.1    46    2.0   214      3.6   788.2    0.00       0    999.0   15.1
 295   19:10   45.1    46    2.5   224      5.8   788.3    0.00       0    999.0   14.7
 295   19:20   45.1    46    2.9   231      6.5   788.3    0.00       0    999.0   15.3
 295   19:30   45.1    45    2.4   222      6.0   788.3    0.00       0    999.0   15.4
 295   19:40   44.9    46    2.8   224      6.6   788.4    0.00       0    999.0   15.2
 295   19:50   44.8    46    2.1   224      6.0   788.5    0.00       0    999.0   15.5
 295   20:00   44.6    47    2.5   229      7.5   788.6    0.00       0    999.0   15.3
 295   20:10   44.4    48    2.1   223      4.5   788.6    0.00       0    999.0   15.4
 295   20:20   44.1    51    2.1   211      4.7   788.4    0.00       0    999.0   14.9
 295   20:30   43.6    53    1.5   220      3.4   788.4    0.00       0    999.0   14.9
 295   20:40   43.6    51    5.0   163      7.6   788.2    0.00       0    999.0   15.2
 295   20:50   43.4    50    2.5   244      6.0   788.4    0.00       0    999.0   14.9
 295   21:00   42.9    53    1.2   294      3.4   788.5    0.00       0    999.0   16.1
 295   21:10   43.0    51    1.6   227      4.7   788.4    0.00       0    999.0   16.0
 295   21:20   43.5    47    4.2   168      6.9   788.4    0.00       0    999.0   15.5
 295   21:30   43.9    46    4.1   166      6.3   788.4    0.00       0    999.0   16.2
 295   21:40   44.0    47    3.4   183      5.8   788.6    0.00       0    999.0   15.3
 295   21:50   43.7    47    2.3   201      4.5   788.8    0.00       0    999.0   15.3
 295   22:00   43.9    45    2.5   196      4.9   788.8    0.00       0    999.0   15.8
 295   22:10   43.8    44    4.7   176      6.5   788.7    0.00       0    999.0   15.9
 295   22:20   43.8    44    5.5   172      8.4   788.8    0.00       0    999.0   15.9
 295   22:30   43.7    43    4.9   177      7.0   788.7    0.00       0    999.0   16.1
 295   22:40   43.9    42    6.5   164     10.1   788.7    0.00       0    999.0   16.4
 295   22:50   44.3    41    7.6   156     11.1   788.7    0.00       0    999.0   15.8
 295   23:00   44.5    42    5.5   157      9.1   788.6    0.00       0    999.0   16.5
 295   23:10   44.5    42    5.3   159      9.0   788.5    0.00       0    999.0   16.3
 295   23:20   44.3    43    5.1   158      9.1   788.5    0.00       0    999.0   16.1
 295   23:30   44.1    43    5.8   162      9.6   788.5    0.00       0    999.0   16.2
 295   23:40   44.0    42    5.5   169      8.6   788.4    0.00       0    999.0   16.2
 295   23:50   44.6    40    5.5   172      9.6   788.3    0.00       0    999.0   15.9
 296    0:00   44.4    41    5.6   169      7.9   788.3    0.00       0    999.0   15.3
 296    0:10   44.3    42    6.0   163      9.5   788.3    0.00       0    999.0   16.3
 296    0:20   44.4    42    3.2   190      7.8   788.5    0.00       0    999.0   15.0
 296    0:30   45.0    39    3.4   228      8.3   788.5    0.00       0    999.0   15.9
 296    0:40   45.4    38    3.7   202      8.6   788.3    0.00       0    999.0   15.5
 296    0:50   45.0    38    3.6   198      8.2   788.3    0.00       0    999.0   15.3
 296    1:00   45.3    38    3.2   216      7.0   788.3    0.00       0    999.0   15.0
 296    1:10   45.2    39    2.8   204      6.6   788.4    0.00       0    999.0   15.6
 296    1:20   45.0    40    3.1   194      6.9   788.3    0.00       0    999.0   15.4
 296    1:30   44.9    41    3.5   193     11.7   788.3    0.00       0    999.0   15.8
 296    1:40   45.1    42    4.8   179      8.4   788.3    0.00       0    999.0   15.7
 296    1:50   45.3    42    4.6   181     10.0   788.3    0.00       0    999.0   15.7
 296    2:00   45.5    42    6.8   173     15.9   788.2    0.00       0    999.0   15.0
 296    2:10   45.4    42    6.3   177     11.0   788.1    0.00       0    999.0   15.5
 296    2:20   45.4    43    7.9   166     12.1   788.0    0.00       0    999.0   15.3
 296    2:30   45.3    43    7.8   169     13.6   787.8    0.00       0    999.0   15.6
 296    2:40   45.4    42    8.5   168     13.2   787.8    0.00       0    999.0   15.1
 296    2:50   45.5    42    8.7   164     12.9   787.7    0.00       0    999.0   15.4
 296    3:00   45.3    43    7.5   170     11.2   787.7    0.00       0    999.0   14.8
 296    3:10   45.5    43    8.8   166     13.8   787.6    0.00       0    999.0   15.0
 296    3:20   45.3    44    8.0   167     12.1   787.7    0.00       0    999.0   15.5
 296    3:30   45.2    44    7.6   167     11.8   787.7    0.00       0    999.0   14.7

Return to Alpha graphs page.


Western Regional Climate Center,wrcc@dri.edu